Station: EHBK - 26/04/2017 11:25Z (il y a 16 minutes)
EHBK 261125Z AUTO VRB04KT 9999 NSC 09/M02 Q1012 NOSIG
Vent de direction variable: 4 kt
Visibilité > 10 km
Pas de nuages significatifs
Température: +09ºC - Point de rosée: -02ºC - QNH: 1012 hPa
Pas de changement significatif prévu dans les 2 heures qui suivent l'observation